Terminal Aerodrome Forecast
Issued by NWS Nashville, TN

Home | Current Version | Previous Version | Text Only | Print | Product List | Glossary On
Versions: 1 2 3 4 5 6 7 8 9 10 11 12 13 14 15 16 17 18 19 20 21 22 23 24 25
415
FTUS44 KOHX 231129
TAFCSV
TAF
KCSV 231129Z 2312/2412 16005KT 6SM BR SCT002
      TEMPO 2312/2315 2SM BR BKN002
     FM231600 17006KT 6SM BR BKN015 BKN035
     FM231900 18008KT P6SM BKN035
     FM240000 18003KT P6SM BKN100
     FM240900 18009KT P6SM BKN035=

USA.gov is the U.S. government's official web portal to all federal, state and local government web resources and services.